Back to Top

Language: 

My Weather Underground Personal Weather Station Historical Data with Graphs...

Delerius Weather Station Historical Data
Daily Summary for June 28, 2017 Units:  Metric    English   Both
« Previous Day
Next Day »
Daily Weekly Monthly Yearly Custom
  High: Low: Average:
Temperature: 12.1 °C 9.9 °C 11.1 °C
Dew Point: 11.3 °C 9.3 °C 10.6 °C
Humidity: 97 % 95 % 96 %
Wind Speed: 14.5 km/h 1.6 km/h 9.3 km/h
Wind Gust: 33.8 km/h - -
Wind:- - SSE
Pressure: 1004.3 hPa 995.5 hPa -
Precipitation: 19.3 mm    
Historical Graphs
 
 
Tabular Data for June 28, 2017
Time Temperature Dew Point Pressure Wind Wind Speed Wind Gust Humidity Rainfall Rate (Hourly) solar Conditions
00:03 12.1 °C 11.3 °C 1004.3 hPa ENE 9.7 km/h 20.9 km/h 95 % 0.51 mm 0 W/m2
00:08 12 °C 11.2 °C 1004.3 hPa ENE 9.7 km/h 20.9 km/h 95 % 0.51 mm 0 W/m2
00:13 11.9 °C 11.3 °C 1004.3 hPa ENE 8 km/h 17.7 km/h 96 % 0.51 mm 0 W/m2
00:18 11.9 °C 11.1 °C 1004.3 hPa ENE 8 km/h 17.7 km/h 95 % 0.51 mm 0 W/m2
00:23 11.8 °C 11 °C 1004.3 hPa ENE 9.7 km/h 17.7 km/h 95 % 0.51 mm 0 W/m2
00:28 11.8 °C 11.2 °C 1004.3 hPa ENE 9.7 km/h 22.5 km/h 96 % 0.51 mm 0 W/m2
00:34 11.8 °C 11.2 °C 1004.3 hPa ENE 9.7 km/h 22.5 km/h 96 % 0.25 mm 0 W/m2
00:39 11.8 °C 11.2 °C 1004.3 hPa ENE 8 km/h 16.1 km/h 96 % 0.25 mm 0 W/m2
00:49 11.8 °C 11.2 °C 1003.9 hPa ENE 8 km/h 17.7 km/h 96 % 0.25 mm 0 W/m2
00:54 11.7 °C 11.1 °C 1003.9 hPa ENE 8 km/h 17.7 km/h 96 % 0.25 mm 0 W/m2
00:59 11.7 °C 11.1 °C 1003.9 hPa ENE 6.4 km/h 14.5 km/h 96 % 0.25 mm 0 W/m2
01:04 11.7 °C 11.1 °C 1003.9 hPa ENE 6.4 km/h 14.5 km/h 96 % 0.25 mm 0 W/m2
01:09 11.7 °C 11.1 °C 1003.9 hPa ENE 6.4 km/h 16.1 km/h 96 % 0.25 mm 0 W/m2
01:14 11.7 °C 11.1 °C 1003.6 hPa ENE 8 km/h 16.1 km/h 96 % 0.25 mm 0 W/m2
01:19 11.6 °C 11 °C 1003.6 hPa ENE 8 km/h 16.1 km/h 96 % 0.25 mm 0 W/m2
01:24 11.6 °C 11 °C 1003.6 hPa ENE 8 km/h 16.1 km/h 96 % 0.25 mm 0 W/m2
01:29 11.5 °C 10.9 °C 1003.6 hPa ENE 8 km/h 16.1 km/h 96 % 0.25 mm 0 W/m2
01:34 11.5 °C 10.9 °C 1003.6 hPa ENE 8 km/h 16.1 km/h 96 % 0.25 mm 0 W/m2
01:39 11.5 °C 10.9 °C 1003.6 hPa ENE 6.4 km/h 12.9 km/h 96 % 0.25 mm 0 W/m2
01:44 11.5 °C 10.9 °C 1003.3 hPa NE 4.8 km/h 12.9 km/h 96 % 0.25 mm 0 W/m2
01:49 11.4 °C 10.8 °C 1003.3 hPa NE 6.4 km/h 14.5 km/h 96 % 0 mm 0 W/m2
01:54 11.4 °C 10.8 °C 1003.3 hPa NE 4.8 km/h 14.5 km/h 96 % 0.25 mm 0 W/m2
01:59 11.4 °C 10.8 °C 1003.3 hPa NE 6.4 km/h 17.7 km/h 96 % 0.25 mm 0 W/m2
02:04 11.4 °C 10.8 °C 1003.3 hPa NE 6.4 km/h 17.7 km/h 96 % 0.25 mm 0 W/m2
02:05 11.4 °C 10.8 °C 1003.3 hPa NE 6.4 km/h 17.7 km/h 96 % 0.25 mm 0 W/m2
02:10 11.4 °C 10.8 °C 1002.9 hPa NE 4.8 km/h 14.5 km/h 96 % 0.25 mm 0 W/m2
02:15 11.4 °C 10.8 °C 1002.9 hPa NE 4.8 km/h 17.7 km/h 96 % 0.51 mm 0 W/m2
02:20 11.4 °C 10.9 °C 1002.9 hPa NE 6.4 km/h 17.7 km/h 97 % 0.51 mm 0 W/m2
02:21 11.4 °C 10.9 °C 1002.9 hPa NE 6.4 km/h 17.7 km/h 97 % 0.51 mm 0 W/m2
02:26 11.4 °C 10.9 °C 1002.9 hPa ENE 6.4 km/h 14.5 km/h 97 % 0.51 mm 0 W/m2
02:31 11.4 °C 10.9 °C 1002.9 hPa NE 8 km/h 16.1 km/h 97 % 0.51 mm 0 W/m2
02:36 11.4 °C 10.9 °C 1002.6 hPa NE 6.4 km/h 16.1 km/h 97 % 0.51 mm 0 W/m2
02:41 11.5 °C 11.1 °C 1002.6 hPa NE 6.4 km/h 17.7 km/h 97 % 0.51 mm 0 W/m2
02:46 11.5 °C 11.1 °C 1002.6 hPa NE 6.4 km/h 17.7 km/h 97 % 0.51 mm 0 W/m2
02:51 11.5 °C 11.1 °C 1002.6 hPa NE 6.4 km/h 14.5 km/h 97 % 0.51 mm 0 W/m2
02:56 11.5 °C 11.1 °C 1002.6 hPa NE 8 km/h 17.7 km/h 97 % 0.51 mm 0 W/m2
03:02 11.6 °C 11.2 °C 1002.3 hPa NE 6.4 km/h 17.7 km/h 97 % 0.51 mm 0 W/m2
03:07 11.6 °C 11.2 °C 1002.3 hPa NE 6.4 km/h 12.9 km/h 97 % 0.76 mm 0 W/m2
03:12 11.6 °C 11.2 °C 1002.3 hPa NE 6.4 km/h 16.1 km/h 97 % 1.02 mm 0 W/m2
03:17 11.6 °C 11.2 °C 1002.3 hPa NE 6.4 km/h 16.1 km/h 97 % 0.76 mm 0 W/m2
03:22 11.6 °C 11.2 °C 1002.3 hPa NE 8 km/h 16.1 km/h 97 % 1.02 mm 0 W/m2
03:27 11.6 °C 11.2 °C 1002.3 hPa NE 8 km/h 16.1 km/h 97 % 1.02 mm 0 W/m2
03:32 11.7 °C 11.2 °C 1002.3 hPa NE 8 km/h 14.5 km/h 97 % 1.02 mm 0 W/m2
03:37 11.7 °C 11.2 °C 1002.3 hPa NE 8 km/h 16.1 km/h 97 % 1.27 mm 0 W/m2
03:42 11.7 °C 11.2 °C 1001.9 hPa NE 8 km/h 16.1 km/h 97 % 1.02 mm 0 W/m2
03:47 11.8 °C 11.3 °C 1001.9 hPa ENE 6.4 km/h 12.9 km/h 97 % 1.27 mm 0 W/m2
03:52 11.8 °C 11.3 °C 1001.9 hPa NE 8 km/h 16.1 km/h 97 % 1.27 mm 0 W/m2
03:57 11.8 °C 11.3 °C 1001.9 hPa NE 6.4 km/h 16.1 km/h 97 % 1.27 mm 0 W/m2
04:02 11.8 °C 11.3 °C 1001.9 hPa NE 6.4 km/h 17.7 km/h 97 % 1.52 mm 0 W/m2
04:07 11.8 °C 11.3 °C 1001.9 hPa NE 8 km/h 17.7 km/h 97 % 1.52 mm 0 W/m2
04:12 11.8 °C 11.3 °C 1001.9 hPa ENE 6.4 km/h 14.5 km/h 97 % 1.27 mm 0 W/m2
04:17 11.8 °C 11.3 °C 1001.9 hPa ENE 6.4 km/h 12.9 km/h 97 % 1.52 mm 0 W/m2
04:22 11.8 °C 11.3 °C 1001.6 hPa ENE 6.4 km/h 12.9 km/h 97 % 1.52 mm 0 W/m2
04:27 11.8 °C 11.3 °C 1001.6 hPa NE 8 km/h 16.1 km/h 97 % 1.52 mm 0 W/m2
04:32 11.8 °C 11.3 °C 1001.6 hPa NE 8 km/h 16.1 km/h 97 % 1.52 mm 0 W/m2
04:37 11.8 °C 11.3 °C 1001.6 hPa ENE 8 km/h 14.5 km/h 97 % 1.52 mm 0 W/m2
04:42 11.8 °C 11.3 °C 1001.6 hPa ENE 8 km/h 16.1 km/h 97 % 1.78 mm 0 W/m2
04:47 11.8 °C 11.3 °C 1001.6 hPa ENE 8 km/h 17.7 km/h 97 % 1.52 mm 0 W/m2
04:52 11.8 °C 11.3 °C 1001.6 hPa ENE 8 km/h 17.7 km/h 97 % 1.52 mm 0 W/m2
04:57 11.8 °C 11.3 °C 1001.6 hPa ENE 6.4 km/h 14.5 km/h 97 % 1.52 mm 0 W/m2
05:02 11.8 °C 11.3 °C 1001.6 hPa ENE 8 km/h 20.9 km/h 97 % 1.52 mm 0 W/m2
05:08 11.8 °C 11.3 °C 1001.6 hPa ENE 8 km/h 20.9 km/h 97 % 1.52 mm 0 W/m2
05:13 11.8 °C 11.3 °C 1001.6 hPa ENE 8 km/h 17.7 km/h 97 % 1.52 mm 0 W/m2
05:18 11.8 °C 11.3 °C 1001.6 hPa NE 6.4 km/h 17.7 km/h 97 % 1.52 mm 0 W/m2
05:23 11.8 °C 11.3 °C 1001.6 hPa NE 6.4 km/h 17.7 km/h 97 % 1.52 mm 0 W/m2
05:28 11.8 °C 11.3 °C 1001.6 hPa NE 9.7 km/h 16.1 km/h 97 % 1.52 mm 0 W/m2
05:33 11.8 °C 11.3 °C 1001.6 hPa ENE 8 km/h 16.1 km/h 97 % 1.52 mm 0 W/m2
05:38 11.8 °C 11.3 °C 1001.6 hPa ENE 8 km/h 17.7 km/h 97 % 1.52 mm 0 W/m2
05:43 11.8 °C 11.3 °C 1001.6 hPa ENE 8 km/h 17.7 km/h 97 % 1.52 mm 5 W/m2
05:48 11.8 °C 11.3 °C 1001.6 hPa ENE 6.4 km/h 14.5 km/h 97 % 1.52 mm 5 W/m2
05:53 11.8 °C 11.3 °C 1001.6 hPa NE 6.4 km/h 14.5 km/h 97 % 1.52 mm 5 W/m2
05:58 11.8 °C 11.3 °C 1001.6 hPa ENE 8 km/h 14.5 km/h 97 % 1.52 mm 5 W/m2
06:03 11.8 °C 11.3 °C 1001.6 hPa ENE 8 km/h 14.5 km/h 97 % 1.52 mm 5 W/m2
06:08 11.8 °C 11.3 °C 1001.6 hPa ENE 8 km/h 14.5 km/h 97 % 1.52 mm 5 W/m2
06:13 11.8 °C 11.3 °C 1001.6 hPa ENE 6.4 km/h 14.5 km/h 97 % 1.78 mm 7 W/m2
06:18 11.8 °C 11.3 °C 1001.6 hPa ENE 9.7 km/h 19.3 km/h 97 % 1.52 mm 7 W/m2
06:23 11.8 °C 11.3 °C 1001.6 hPa ENE 9.7 km/h 19.3 km/h 97 % 1.52 mm 9 W/m2
06:28 11.8 °C 11.3 °C 1001.6 hPa NE 8 km/h 19.3 km/h 97 % 1.52 mm 11 W/m2
06:33 11.8 °C 11.3 °C 1001.6 hPa NE 9.7 km/h 19.3 km/h 97 % 1.52 mm 11 W/m2
06:38 11.8 °C 11.3 °C 1001.6 hPa NE 9.7 km/h 17.7 km/h 97 % 1.52 mm 14 W/m2
06:43 11.8 °C 11.3 °C 1001.2 hPa ENE 9.7 km/h 17.7 km/h 97 % 1.78 mm 16 W/m2
06:48 11.8 °C 11.3 °C 1001.2 hPa ENE 9.7 km/h 19.3 km/h 97 % 1.52 mm 16 W/m2
06:53 11.8 °C 11.3 °C 1001.2 hPa ENE 9.7 km/h 19.3 km/h 97 % 1.52 mm 16 W/m2
06:59 11.8 °C 11.3 °C 1001.2 hPa NE 9.7 km/h 17.7 km/h 97 % 1.52 mm 18 W/m2
07:04 11.8 °C 11.3 °C 1001.2 hPa NE 8 km/h 16.1 km/h 97 % 1.78 mm 16 W/m2
07:09 11.8 °C 11.3 °C 1001.2 hPa NE 8 km/h 14.5 km/h 97 % 1.78 mm 16 W/m2
07:14 11.8 °C 11.3 °C 1001.2 hPa ENE 6.4 km/h 14.5 km/h 97 % 1.52 mm 21 W/m2
07:19 11.8 °C 11.3 °C 1001.2 hPa NE 4.8 km/h 12.9 km/h 97 % 1.78 mm 18 W/m2
07:24 11.8 °C 11.3 °C 1001.2 hPa NE 8 km/h 14.5 km/h 97 % 1.52 mm 16 W/m2
07:29 11.7 °C 11.2 °C 1001.2 hPa ENE 8 km/h 16.1 km/h 97 % 1.52 mm 18 W/m2
07:34 11.7 °C 11.2 °C 1001.2 hPa ENE 8 km/h 22.5 km/h 97 % 1.52 mm 25 W/m2
07:39 11.7 °C 11.2 °C 1001.2 hPa NE 8 km/h 22.5 km/h 97 % 1.52 mm 25 W/m2
07:44 11.6 °C 11.2 °C 1001.2 hPa NE 6.4 km/h 16.1 km/h 97 % 1.52 mm 23 W/m2
07:49 11.6 °C 11.2 °C 1001.2 hPa NE 9.7 km/h 17.7 km/h 97 % 1.78 mm 23 W/m2
07:54 11.5 °C 11.1 °C 1001.2 hPa NE 9.7 km/h 19.3 km/h 97 % 1.78 mm 25 W/m2
07:59 11.4 °C 10.9 °C 1001.2 hPa NE 8 km/h 19.3 km/h 97 % 1.52 mm 26 W/m2
08:04 11.4 °C 10.9 °C 1001.2 hPa NE 9.7 km/h 17.7 km/h 97 % 1.52 mm 25 W/m2
08:09 11.4 °C 10.9 °C 1001.2 hPa NE 8 km/h 17.7 km/h 97 % 1.52 mm 25 W/m2
08:14 11.4 °C 10.9 °C 1001.6 hPa NE 8 km/h 16.1 km/h 97 % 1.52 mm 28 W/m2
08:19 11.3 °C 10.8 °C 1001.2 hPa NE 9.7 km/h 19.3 km/h 97 % 1.52 mm 32 W/m2
08:24 11.3 °C 10.8 °C 1001.2 hPa NE 8 km/h 19.3 km/h 97 % 1.52 mm 33 W/m2
08:29 11.3 °C 10.8 °C 1001.2 hPa NE 6.4 km/h 19.3 km/h 97 % 1.52 mm 26 W/m2
08:34 11.3 °C 10.8 °C 1001.2 hPa NE 8 km/h 17.7 km/h 97 % 1.27 mm 32 W/m2
08:39 11.3 °C 10.8 °C 1001.2 hPa NE 6.4 km/h 17.7 km/h 97 % 1.27 mm 30 W/m2
08:44 11.3 °C 10.8 °C 1001.2 hPa NE 8 km/h 20.9 km/h 97 % 1.27 mm 35 W/m2
08:49 11.3 °C 10.8 °C 1001.2 hPa NE 6.4 km/h 20.9 km/h 97 % 1.27 mm 35 W/m2
08:54 11.3 °C 10.8 °C 1001.2 hPa ENE 4.8 km/h 14.5 km/h 97 % 1.02 mm 35 W/m2
08:59 11.3 °C 10.8 °C 1001.2 hPa NE 4.8 km/h 12.9 km/h 97 % 1.02 mm 42 W/m2
09:04 11.3 °C 10.8 °C 1001.2 hPa NE 4.8 km/h 16.1 km/h 97 % 1.02 mm 42 W/m2
09:09 11.3 °C 10.8 °C 1001.2 hPa NE 6.4 km/h 17.7 km/h 97 % 1.02 mm 46 W/m2
09:14 11.4 °C 10.9 °C 1001.2 hPa NE 6.4 km/h 17.7 km/h 97 % 1.02 mm 53 W/m2
09:19 11.3 °C 10.8 °C 1001.2 hPa NE 8 km/h 22.5 km/h 97 % 1.02 mm 53 W/m2
09:24 11.3 °C 10.8 °C 1001.2 hPa NE 9.7 km/h 22.5 km/h 97 % 1.02 mm 46 W/m2
09:29 11.3 °C 10.8 °C 1001.2 hPa NE 9.7 km/h 22.5 km/h 97 % 1.02 mm 26 W/m2
09:34 11.3 °C 10.8 °C 1001.2 hPa ENE 8 km/h 22.5 km/h 97 % 1.02 mm 44 W/m2
09:40 11.3 °C 10.8 °C 1001.2 hPa NE 8 km/h 16.1 km/h 97 % 1.02 mm 46 W/m2
09:45 11.3 °C 10.8 °C 1001.2 hPa NE 8 km/h 19.3 km/h 97 % 1.27 mm 53 W/m2
09:50 11.1 °C 10.7 °C 1001.2 hPa NE 9.7 km/h 22.5 km/h 97 % 1.02 mm 65 W/m2
09:55 11.1 °C 10.7 °C 1001.2 hPa NE 9.7 km/h 22.5 km/h 97 % 1.02 mm 69 W/m2
10:00 11 °C 10.6 °C 1001.2 hPa NE 9.7 km/h 20.9 km/h 97 % 0.76 mm 62 W/m2
10:05 11 °C 10.6 °C 1001.2 hPa NE 8 km/h 22.5 km/h 97 % 1.02 mm 62 W/m2
10:10 11 °C 10.6 °C 1001.2 hPa NE 8 km/h 22.5 km/h 97 % 0.76 mm 53 W/m2
10:15 11 °C 10.6 °C 1001.2 hPa NE 6.4 km/h 17.7 km/h 97 % 0.76 mm 35 W/m2
10:25 11 °C 10.6 °C 1001.2 hPa NE 8 km/h 22.5 km/h 97 % 0.76 mm 58 W/m2
10:30 10.9 °C 10.4 °C 1001.2 hPa NE 9.7 km/h 22.5 km/h 97 % 0.76 mm 51 W/m2
10:35 10.8 °C 10.3 °C 1001.2 hPa ENE 6.4 km/h 16.1 km/h 97 % 0.76 mm 39 W/m2
10:37 10.8 °C 10.3 °C 1001.2 hPa NE 8 km/h 20.9 km/h 97 % 0.76 mm 44 W/m2
10:42 10.8 °C 10.3 °C 1001.2 hPa NNE 6.4 km/h 25.7 km/h 97 % 0.76 mm 46 W/m2
10:47 10.9 °C 10.4 °C 1000.9 hPa NNE 6.4 km/h 25.7 km/h 97 % 0.76 mm 56 W/m2
10:52 10.9 °C 10.4 °C 1000.9 hPa NNE 8 km/h 17.7 km/h 97 % 0.76 mm 58 W/m2
10:57 10.9 °C 10.4 °C 1000.9 hPa NNE 6.4 km/h 16.1 km/h 97 % 0.76 mm 53 W/m2
11:02 10.9 °C 10.4 °C 1000.9 hPa NNE 6.4 km/h 14.5 km/h 97 % 0.51 mm 56 W/m2
11:07 10.9 °C 10.4 °C 1000.9 hPa NNE 8 km/h 19.3 km/h 97 % 0.76 mm 74 W/m2
11:12 10.9 °C 10.4 °C 1000.9 hPa NNE 6.4 km/h 19.3 km/h 97 % 0.76 mm 54 W/m2
11:17 10.9 °C 10.4 °C 1000.9 hPa NNE 1.6 km/h 12.9 km/h 97 % 0.76 mm 63 W/m2
11:22 10.9 °C 10.4 °C 1000.9 hPa NNE 4.8 km/h 19.3 km/h 97 % 0.76 mm 51 W/m2
11:27 11 °C 10.6 °C 1000.9 hPa NE 6.4 km/h 19.3 km/h 97 % 0.76 mm 58 W/m2
11:32 11 °C 10.6 °C 1000.9 hPa NE 6.4 km/h 19.3 km/h 97 % 0.51 mm 62 W/m2
11:37 11.1 °C 10.7 °C 1000.9 hPa NNE 8 km/h 19.3 km/h 97 % 0.51 mm 56 W/m2
11:42 11.1 °C 10.7 °C 1000.9 hPa NE 4.8 km/h 14.5 km/h 97 % 0.76 mm 54 W/m2
11:47 11.1 °C 10.7 °C 1000.9 hPa NE 4.8 km/h 14.5 km/h 97 % 0.51 mm 63 W/m2
11:52 11.2 °C 10.7 °C 1000.9 hPa NE 4.8 km/h 14.5 km/h 97 % 0.51 mm 65 W/m2
11:57 11.2 °C 10.7 °C 1000.9 hPa NNE 4.8 km/h 14.5 km/h 97 % 0.76 mm 65 W/m2
12:02 11.3 °C 10.8 °C 1000.9 hPa NNE 3.2 km/h 11.3 km/h 97 % 0.76 mm 56 W/m2
12:07 11.3 °C 10.8 °C 1000.9 hPa NNE 3.2 km/h 14.5 km/h 97 % 0.51 mm 54 W/m2
12:12 11.4 °C 10.9 °C 1000.9 hPa North 3.2 km/h 14.5 km/h 97 % 0.76 mm 63 W/m2
12:17 11.4 °C 10.9 °C 1000.6 hPa NNE 4.8 km/h 17.7 km/h 97 % 0.76 mm 69 W/m2
12:22 11.4 °C 10.9 °C 1000.6 hPa NNE 8 km/h 17.7 km/h 97 % 0.51 mm 98 W/m2
12:27 11.4 °C 10.9 °C 1000.6 hPa NNE 9.7 km/h 20.9 km/h 97 % 0.76 mm 76 W/m2
12:32 11.5 °C 11.1 °C 1000.6 hPa NE 8 km/h 20.9 km/h 97 % 0.76 mm 60 W/m2
12:37 11.4 °C 10.9 °C 1000.6 hPa NE 6.4 km/h 16.1 km/h 97 % 0.76 mm 58 W/m2
12:42 11.3 °C 10.7 °C 1000.6 hPa NE 8 km/h 20.9 km/h 96 % 0.51 mm 47 W/m2
12:47 11.3 °C 10.7 °C 1000.6 hPa NE 9.7 km/h 20.9 km/h 96 % 0.76 mm 54 W/m2
12:52 11.3 °C 10.8 °C 1000.6 hPa NE 6.4 km/h 20.9 km/h 97 % 0.76 mm 60 W/m2
12:57 11.3 °C 10.8 °C 1000.6 hPa NE 3.2 km/h 11.3 km/h 97 % 0.51 mm 60 W/m2
13:02 11.4 °C 10.9 °C 1000.6 hPa NNE 3.2 km/h 11.3 km/h 97 % 0.76 mm 58 W/m2
13:03 11.4 °C 10.9 °C 1000.6 hPa NNE 4.8 km/h 11.3 km/h 97 % 0.76 mm 58 W/m2
13:08 11.4 °C 10.9 °C 1000.6 hPa NNE 6.4 km/h 17.7 km/h 97 % 0.76 mm 91 W/m2
13:13 11.4 °C 10.9 °C 1000.6 hPa North 8 km/h 24.1 km/h 97 % 0.51 mm 81 W/m2
13:18 11.4 °C 10.9 °C 1000.6 hPa North 8 km/h 24.1 km/h 97 % 0.76 mm 84 W/m2
13:23 11.3 °C 10.7 °C 1000.6 hPa NNE 9.7 km/h 29 km/h 96 % 0.76 mm 104 W/m2
13:28 11.2 °C 10.6 °C 1000.6 hPa NNE 11.3 km/h 29 km/h 96 % 0.51 mm 111 W/m2
13:33 11.2 °C 10.6 °C 1000.6 hPa NNE 12.9 km/h 24.1 km/h 96 % 0.76 mm 105 W/m2
13:38 11.2 °C 10.6 °C 1000.2 hPa NNE 12.9 km/h 24.1 km/h 96 % 0.76 mm 98 W/m2
13:43 11.2 °C 10.7 °C 1000.6 hPa NNE 9.7 km/h 24.1 km/h 97 % 0.76 mm 125 W/m2
13:48 11.2 °C 10.6 °C 1000.2 hPa NNE 9.7 km/h 20.9 km/h 96 % 0.51 mm 109 W/m2
13:53 11.1 °C 10.5 °C 1000.2 hPa NNE 11.3 km/h 20.9 km/h 96 % 0.51 mm 120 W/m2
13:58 11.1 °C 10.5 °C 1000.2 hPa NNE 9.7 km/h 20.9 km/h 96 % 0.51 mm 114 W/m2
14:03 11.2 °C 10.7 °C 1000.2 hPa NNE 8 km/h 19.3 km/h 97 % 0.51 mm 102 W/m2
14:08 11.3 °C 10.7 °C 1000.2 hPa North 6.4 km/h 16.1 km/h 96 % 0.51 mm 116 W/m2
14:14 11.3 °C 10.7 °C 1000.2 hPa North 8 km/h 16.1 km/h 96 % 0.76 mm 105 W/m2
14:18 11.4 °C 10.8 °C 1000.2 hPa North 8 km/h 17.7 km/h 96 % 0.51 mm 95 W/m2
14:24 11.3 °C 10.7 °C 1000.2 hPa North 9.7 km/h 19.3 km/h 96 % 0.51 mm 72 W/m2
14:29 11.3 °C 10.7 °C 999.9 hPa North 11.3 km/h 19.3 km/h 96 % 0.51 mm 81 W/m2
14:34 11.3 °C 10.7 °C 999.9 hPa North 11.3 km/h 25.7 km/h 96 % 0.51 mm 93 W/m2
14:39 11.2 °C 10.6 °C 999.9 hPa North 12.9 km/h 25.7 km/h 96 % 0.51 mm 86 W/m2
14:44 11.3 °C 10.7 °C 999.9 hPa North 11.3 km/h 20.9 km/h 96 % 0.51 mm 83 W/m2
14:49 11.3 °C 10.7 °C 999.9 hPa North 9.7 km/h 19.3 km/h 96 % 0.51 mm 74 W/m2
14:54 11.3 °C 10.7 °C 999.9 hPa North 11.3 km/h 24.1 km/h 96 % 0.76 mm 69 W/m2
14:59 11.2 °C 10.6 °C 999.9 hPa North 12.9 km/h 24.1 km/h 96 % 0.51 mm 91 W/m2
15:04 11.2 °C 10.6 °C 999.9 hPa North 11.3 km/h 24.1 km/h 96 % 0.51 mm 69 W/m2
15:09 11.3 °C 10.7 °C 999.9 hPa North 8 km/h 20.9 km/h 96 % 0.76 mm 90 W/m2
15:14 11.3 °C 10.7 °C 999.9 hPa North 9.7 km/h 24.1 km/h 96 % 0.51 mm 84 W/m2
15:19 11.2 °C 10.6 °C 999.9 hPa North 11.3 km/h 24.1 km/h 96 % 0.51 mm 81 W/m2
15:24 11.2 °C 10.6 °C 999.5 hPa North 9.7 km/h 22.5 km/h 96 % 0.76 mm 90 W/m2
15:29 11.3 °C 10.7 °C 999.5 hPa North 8 km/h 20.9 km/h 96 % 0.76 mm 130 W/m2
15:34 11.3 °C 10.7 °C 999.5 hPa North 9.7 km/h 22.5 km/h 96 % 0.51 mm 104 W/m2
15:39 11.3 °C 10.7 °C 999.5 hPa North 11.3 km/h 29 km/h 96 % 0.76 mm 104 W/m2
15:44 11.2 °C 10.6 °C 999.5 hPa North 12.9 km/h 29 km/h 96 % 0.76 mm 142 W/m2
15:49 11.1 °C 10.5 °C 999.5 hPa North 14.5 km/h 24.1 km/h 96 % 1.02 mm 149 W/m2
15:54 11.1 °C 10.5 °C 999.5 hPa North 12.9 km/h 25.7 km/h 96 % 0.76 mm 137 W/m2
15:59 11.2 °C 10.6 °C 999.5 hPa North 11.3 km/h 25.7 km/h 96 % 0.76 mm 105 W/m2
16:04 11.2 °C 10.6 °C 999.5 hPa North 9.7 km/h 24.1 km/h 96 % 0.76 mm 118 W/m2
16:09 11.2 °C 10.6 °C 999.5 hPa North 9.7 km/h 22.5 km/h 96 % 0.76 mm 70 W/m2
16:14 11.2 °C 10.6 °C 999.5 hPa North 9.7 km/h 22.5 km/h 96 % 0.76 mm 100 W/m2
16:19 11.3 °C 10.7 °C 999.5 hPa North 9.7 km/h 17.7 km/h 96 % 0.76 mm 81 W/m2
16:24 11.3 °C 10.7 °C 999.5 hPa North 9.7 km/h 17.7 km/h 96 % 0.76 mm 83 W/m2
16:29 11.3 °C 10.7 °C 999.2 hPa North 11.3 km/h 25.7 km/h 96 % 0.76 mm 102 W/m2
16:34 11.3 °C 10.7 °C 999.2 hPa North 11.3 km/h 25.7 km/h 96 % 1.02 mm 65 W/m2
16:35 11.3 °C 10.7 °C 999.2 hPa North 11.3 km/h 25.7 km/h 96 % 1.02 mm 74 W/m2
16:40 11.3 °C 10.7 °C 999.2 hPa North 11.3 km/h 22.5 km/h 96 % 0.76 mm 88 W/m2
16:45 11.2 °C 10.6 °C 999.2 hPa North 12.9 km/h 29 km/h 96 % 1.02 mm 88 W/m2
16:50 11.2 °C 10.6 °C 999.2 hPa North 11.3 km/h 29 km/h 96 % 0.76 mm 51 W/m2
16:55 11.2 °C 10.6 °C 999.2 hPa North 11.3 km/h 24.1 km/h 96 % 1.02 mm 88 W/m2
17:00 11.1 °C 10.5 °C 999.2 hPa North 9.7 km/h 19.3 km/h 96 % 1.27 mm 76 W/m2
17:01 11.1 °C 10.5 °C 999.2 hPa North 9.7 km/h 19.3 km/h 96 % 1.27 mm 76 W/m2
17:06 11.1 °C 10.5 °C 999.2 hPa North 11.3 km/h 22.5 km/h 96 % 1.27 mm 62 W/m2
17:11 11 °C 10.4 °C 999.2 hPa North 11.3 km/h 22.5 km/h 96 % 1.02 mm 111 W/m2
17:16 11 °C 10.4 °C 999.2 hPa North 9.7 km/h 20.9 km/h 96 % 1.27 mm 116 W/m2
17:20 11 °C 10.4 °C 999.2 hPa North 9.7 km/h 20.9 km/h 96 % 1.27 mm 79 W/m2
17:25 10.9 °C 10.3 °C 999.2 hPa NNW 11.3 km/h 20.9 km/h 96 % 1.27 mm 76 W/m2
17:30 10.8 °C 10.1 °C 999.2 hPa NNW 12.9 km/h 29 km/h 95 % 1.27 mm 76 W/m2
17:35 10.7 °C 9.9 °C 999.2 hPa North 11.3 km/h 29 km/h 95 % 1.02 mm 65 W/m2
17:40 10.7 °C 9.9 °C 998.9 hPa North 11.3 km/h 25.7 km/h 95 % 1.02 mm 70 W/m2
17:45 10.7 °C 10.1 °C 998.9 hPa NNW 12.9 km/h 25.7 km/h 96 % 1.02 mm 69 W/m2
17:50 10.7 °C 10.1 °C 998.9 hPa NNW 11.3 km/h 30.6 km/h 96 % 0.76 mm 67 W/m2
17:55 10.8 °C 10.2 °C 998.9 hPa NNW 11.3 km/h 30.6 km/h 96 % 1.02 mm 62 W/m2
18:00 10.8 °C 10.2 °C 998.9 hPa NNW 9.7 km/h 22.5 km/h 96 % 0.76 mm 67 W/m2
18:05 10.8 °C 10.2 °C 998.9 hPa NNW 12.9 km/h 22.5 km/h 96 % 1.02 mm 72 W/m2
18:10 10.8 °C 10.2 °C 998.9 hPa NNW 14.5 km/h 33.8 km/h 96 % 1.02 mm 62 W/m2
18:15 10.7 °C 10.1 °C 998.9 hPa NNW 14.5 km/h 33.8 km/h 96 % 1.02 mm 56 W/m2
18:20 10.7 °C 10.1 °C 998.9 hPa NNW 14.5 km/h 30.6 km/h 96 % 1.02 mm 44 W/m2
18:25 10.6 °C 10 °C 998.9 hPa NNW 14.5 km/h 30.6 km/h 96 % 0.76 mm 39 W/m2
18:30 10.7 °C 10.1 °C 998.9 hPa NNW 12.9 km/h 25.7 km/h 96 % 0.76 mm 40 W/m2
18:35 10.7 °C 10.1 °C 998.9 hPa NNW 12.9 km/h 25.7 km/h 96 % 0.76 mm 35 W/m2
18:40 10.6 °C 10 °C 998.9 hPa NNW 12.9 km/h 32.2 km/h 96 % 0.76 mm 37 W/m2
18:41 10.6 °C 10 °C 998.9 hPa NNW 12.9 km/h 32.2 km/h 96 % 0.76 mm 37 W/m2
18:51 10.6 °C 10 °C 998.9 hPa North 11.3 km/h 30.6 km/h 96 % 0.51 mm 44 W/m2
18:56 10.4 °C 9.6 °C 998.9 hPa NNW 11.3 km/h 25.7 km/h 95 % 0.76 mm 46 W/m2
19:01 10.4 °C 9.8 °C 998.5 hPa NNW 12.9 km/h 24.1 km/h 96 % 0.76 mm 44 W/m2
19:06 10.4 °C 9.8 °C 998.5 hPa NNW 11.3 km/h 24.1 km/h 96 % 0.51 mm 39 W/m2
19:11 10.4 °C 9.6 °C 998.5 hPa NNW 11.3 km/h 24.1 km/h 95 % 0.51 mm 33 W/m2
19:16 10.3 °C 9.7 °C 998.5 hPa NNW 11.3 km/h 22.5 km/h 96 % 0.51 mm 33 W/m2
19:21 10.3 °C 9.7 °C 998.5 hPa NNW 12.9 km/h 30.6 km/h 96 % 0.51 mm 33 W/m2
19:26 10.3 °C 9.7 °C 998.5 hPa NNW 14.5 km/h 30.6 km/h 96 % 0.51 mm 40 W/m2
19:31 10.3 °C 9.7 °C 998.5 hPa NNW 12.9 km/h 24.1 km/h 96 % 0.51 mm 33 W/m2
19:36 10.2 °C 9.6 °C 998.5 hPa NNW 14.5 km/h 25.7 km/h 96 % 0.51 mm 33 W/m2
19:41 10.2 °C 9.6 °C 998.2 hPa NNW 12.9 km/h 25.7 km/h 96 % 0.51 mm 33 W/m2
19:46 10.2 °C 9.6 °C 998.2 hPa NNW 12.9 km/h 24.1 km/h 96 % 0.51 mm 35 W/m2
19:51 10.2 °C 9.4 °C 998.2 hPa NNW 14.5 km/h 25.7 km/h 95 % 0.51 mm 26 W/m2
19:56 10.1 °C 9.5 °C 998.2 hPa NNW 12.9 km/h 25.7 km/h 96 % 0.25 mm 25 W/m2
20:01 10.1 °C 9.3 °C 998.2 hPa NNW 11.3 km/h 22.5 km/h 95 % 0.51 mm 26 W/m2
20:06 10.1 °C 9.3 °C 998.2 hPa NNW 12.9 km/h 24.1 km/h 95 % 0.51 mm 32 W/m2
20:12 10.1 °C 9.3 °C 997.9 hPa NNW 12.9 km/h 24.1 km/h 95 % 0.51 mm 30 W/m2
20:17 10.1 °C 9.3 °C 997.9 hPa NNW 14.5 km/h 24.1 km/h 95 % 0.51 mm 26 W/m2
20:22 10.1 °C 9.3 °C 997.9 hPa NNW 12.9 km/h 24.1 km/h 95 % 0.51 mm 18 W/m2
20:27 10.1 °C 9.3 °C 997.9 hPa NNW 12.9 km/h 24.1 km/h 95 % 0.51 mm 16 W/m2
20:32 10.1 °C 9.3 °C 997.9 hPa NNW 12.9 km/h 24.1 km/h 95 % 0.25 mm 12 W/m2
20:37 10.1 °C 9.3 °C 997.9 hPa NNW 12.9 km/h 25.7 km/h 95 % 0.51 mm 9 W/m2
20:42 10.1 °C 9.3 °C 997.9 hPa NW 12.9 km/h 25.7 km/h 95 % 0.51 mm 7 W/m2
20:43 10.1 °C 9.3 °C 997.9 hPa NW 11.3 km/h 22.5 km/h 95 % 0.51 mm 5 W/m2
20:48 10.1 °C 9.3 °C 997.9 hPa NNW 11.3 km/h 30.6 km/h 95 % 0.51 mm 5 W/m2
20:53 10.1 °C 9.5 °C 997.9 hPa NW 11.3 km/h 30.6 km/h 96 % 0.51 mm 0 W/m2
20:58 10.1 °C 9.5 °C 997.9 hPa NW 11.3 km/h 20.9 km/h 96 % 0.25 mm 0 W/m2
21:03 10.1 °C 9.5 °C 997.5 hPa NW 9.7 km/h 20.9 km/h 96 % 0.25 mm 0 W/m2
21:08 10.1 °C 9.5 °C 997.5 hPa NNW 9.7 km/h 20.9 km/h 96 % 0.25 mm 0 W/m2
21:13 10.1 °C 9.5 °C 997.5 hPa NNW 12.9 km/h 33.8 km/h 96 % 0.25 mm 0 W/m2
21:18 10 °C 9.4 °C 997.5 hPa NNW 12.9 km/h 33.8 km/h 96 % 0.25 mm 0 W/m2
21:23 10 °C 9.4 °C 997.5 hPa NW 11.3 km/h 22.5 km/h 96 % 0.25 mm 0 W/m2
21:28 10 °C 9.4 °C 997.5 hPa NNW 9.7 km/h 22.5 km/h 96 % 0.25 mm 0 W/m2
21:33 10 °C 9.4 °C 997.5 hPa NNW 12.9 km/h 24.1 km/h 96 % 0.25 mm 0 W/m2
21:38 9.9 °C 9.3 °C 997.5 hPa NW 12.9 km/h 24.1 km/h 96 % 0 mm 0 W/m2
21:43 9.9 °C 9.3 °C 997.2 hPa NW 11.3 km/h 29 km/h 96 % 0 mm 0 W/m2
21:48 9.9 °C 9.3 °C 997.2 hPa NW 12.9 km/h 32.2 km/h 96 % 0 mm 0 W/m2
21:53 9.9 °C 9.3 °C 997.2 hPa NW 12.9 km/h 32.2 km/h 96 % 0 mm 0 W/m2
21:58 9.9 °C 9.3 °C 997.2 hPa NW 12.9 km/h 22.5 km/h 96 % 0 mm 0 W/m2
22:03 9.9 °C 9.3 °C 997.2 hPa NW 11.3 km/h 22.5 km/h 96 % 0 mm 0 W/m2
22:08 10 °C 9.4 °C 996.8 hPa NW 11.3 km/h 24.1 km/h 96 % 0.25 mm 0 W/m2
22:13 10 °C 9.4 °C 996.8 hPa NW 11.3 km/h 24.1 km/h 96 % 0.25 mm 0 W/m2
22:18 10 °C 9.4 °C 996.8 hPa NW 11.3 km/h 22.5 km/h 96 % 0.25 mm 0 W/m2
22:23 10.1 °C 9.5 °C 996.8 hPa NW 12.9 km/h 22.5 km/h 96 % 0.25 mm 0 W/m2
22:28 10.1 °C 9.5 °C 996.5 hPa NW 12.9 km/h 22.5 km/h 96 % 0.25 mm 0 W/m2
22:33 10.1 °C 9.5 °C 996.5 hPa NW 12.9 km/h 24.1 km/h 96 % 0.25 mm 0 W/m2
22:35 10.1 °C 9.5 °C 996.5 hPa NW 12.9 km/h 24.1 km/h 96 % 0.25 mm 0 W/m2
22:40 10.1 °C 9.5 °C 996.5 hPa NW 14.5 km/h 24.1 km/h 96 % 0.25 mm 0 W/m2
22:45 10.1 °C 9.5 °C 996.5 hPa NW 12.9 km/h 22.5 km/h 96 % 0.25 mm 0 W/m2
22:50 10.2 °C 9.6 °C 996.5 hPa NW 12.9 km/h 22.5 km/h 96 % 0.25 mm 0 W/m2
22:55 10.2 °C 9.6 °C 996.2 hPa NW 12.9 km/h 22.5 km/h 96 % 0.25 mm 0 W/m2
23:00 10.2 °C 9.6 °C 996.2 hPa NW 12.9 km/h 22.5 km/h 96 % 0.25 mm 0 W/m2
23:05 10.2 °C 9.6 °C 996.2 hPa NW 14.5 km/h 25.7 km/h 96 % 0.25 mm 0 W/m2
23:07 10.2 °C 9.6 °C 996.2 hPa NW 14.5 km/h 25.7 km/h 96 % 0 mm 0 W/m2
23:12 10.2 °C 9.6 °C 995.8 hPa NW 14.5 km/h 29 km/h 96 % 0 mm 0 W/m2
23:17 10.2 °C 9.6 °C 995.8 hPa NW 14.5 km/h 29 km/h 96 % 0.25 mm 0 W/m2
23:22 10.2 °C 9.6 °C 995.8 hPa NW 14.5 km/h 25.7 km/h 96 % 0.25 mm 0 W/m2
23:27 10.3 °C 9.7 °C 995.8 hPa NW 12.9 km/h 32.2 km/h 96 % 0.25 mm 0 W/m2
23:32 10.3 °C 9.7 °C 995.8 hPa NW 14.5 km/h 32.2 km/h 96 % 0.25 mm 0 W/m2
23:37 10.3 °C 9.7 °C 995.8 hPa NW 12.9 km/h 25.7 km/h 96 % 0.25 mm 0 W/m2
23:42 10.3 °C 9.7 °C 995.8 hPa NW 12.9 km/h 25.7 km/h 96 % 0.25 mm 0 W/m2
23:47 10.3 °C 9.7 °C 995.5 hPa NW 11.3 km/h 22.5 km/h 96 % 0.25 mm 0 W/m2
23:52 10.3 °C 9.7 °C 995.5 hPa NW 11.3 km/h 24.1 km/h 96 % 0.51 mm 0 W/m2
23:57 10.3 °C 9.7 °C 995.5 hPa NW 12.9 km/h 24.1 km/h 96 % 0.51 mm 0 W/m2
Delerius-Weather
Compliments of Weather Underground - 2.25 mb

Data updates at regular intervals.